sensor_id;sensor_type;location;lat;lon;timestamp;temperature;humidity
6810;DHT22;3443;48.812;9.112;2023-02-28T00:00:19;-2.20;99.90
6810;DHT22;3443;48.812;9.112;2023-02-28T00:02:45;-2.20;99.90
6810;DHT22;3443;48.812;9.112;2023-02-28T00:05:13;-2.20;99.90
6810;DHT22;3443;48.812;9.112;2023-02-28T00:07:40;-2.20;99.90
6810;DHT22;3443;48.812;9.112;2023-02-28T00:10:07;-2.20;99.90
6810;DHT22;3443;48.812;9.112;2023-02-28T00:12:34;-2.20;99.90
6810;DHT22;3443;48.812;9.112;2023-02-28T00:15:00;-2.30;99.90
6810;DHT22;3443;48.812;9.112;2023-02-28T00:17:25;-2.30;99.90
6810;DHT22;3443;48.812;9.112;2023-02-28T00:19:51;-2.30;99.90
6810;DHT22;3443;48.812;9.112;2023-02-28T00:22:18;-2.30;99.90
6810;DHT22;3443;48.812;9.112;2023-02-28T00:24:43;-2.30;99.90
6810;DHT22;3443;48.812;9.112;2023-02-28T00:27:10;-2.20;99.90
6810;DHT22;3443;48.812;9.112;2023-02-28T00:29:36;-2.30;99.90
6810;DHT22;3443;48.812;9.112;2023-02-28T00:32:02;-2.30;99.90
6810;DHT22;3443;48.812;9.112;2023-02-28T00:34:28;-2.30;99.90
6810;DHT22;3443;48.812;9.112;2023-02-28T00:36:54;-2.30;99.90
6810;DHT22;3443;48.812;9.112;2023-02-28T00:39:20;-2.30;99.90
6810;DHT22;3443;48.812;9.112;2023-02-28T00:41:45;-2.40;99.90
6810;DHT22;3443;48.812;9.112;2023-02-28T00:44:11;-2.30;99.90
6810;DHT22;3443;48.812;9.112;2023-02-28T00:46:36;-2.40;99.90
6810;DHT22;3443;48.812;9.112;2023-02-28T00:49:02;-2.30;99.90
6810;DHT22;3443;48.812;9.112;2023-02-28T00:51:28;-2.40;99.90
6810;DHT22;3443;48.812;9.112;2023-02-28T00:53:54;-2.30;99.90
6810;DHT22;3443;48.812;9.112;2023-02-28T00:56:19;-2.40;99.90
6810;DHT22;3443;48.812;9.112;2023-02-28T00:58:45;-2.40;99.90
6810;DHT22;3443;48.812;9.112;2023-02-28T01:01:10;-2.40;99.90
6810;DHT22;3443;48.812;9.112;2023-02-28T01:03:36;-2.40;99.90
6810;DHT22;3443;48.812;9.112;2023-02-28T01:06:02;-2.40;99.90
6810;DHT22;3443;48.812;9.112;2023-02-28T01:08:27;-2.40;99.90
6810;DHT22;3443;48.812;9.112;2023-02-28T01:10:53;-2.40;99.90
6810;DHT22;3443;48.812;9.112;2023-02-28T01:13:19;-2.40;99.90
6810;DHT22;3443;48.812;9.112;2023-02-28T01:15:54;-2.40;99.90
6810;DHT22;3443;48.812;9.112;2023-02-28T01:18:21;-2.50;99.90
6810;DHT22;3443;48.812;9.112;2023-02-28T01:20:47;-2.50;99.90
6810;DHT22;3443;48.812;9.112;2023-02-28T01:23:13;-2.50;99.90
6810;DHT22;3443;48.812;9.112;2023-02-28T01:25:39;-2.50;99.90
6810;DHT22;3443;48.812;9.112;2023-02-28T01:28:05;-2.50;99.90
6810;DHT22;3443;48.812;9.112;2023-02-28T01:30:31;-2.50;99.90
6810;DHT22;3443;48.812;9.112;2023-02-28T01:32:57;-2.60;99.90
6810;DHT22;3443;48.812;9.112;2023-02-28T01:35:22;-2.60;99.90
6810;DHT22;3443;48.812;9.112;2023-02-28T01:37:48;-2.60;99.90
6810;DHT22;3443;48.812;9.112;2023-02-28T01:40:14;-2.60;99.90
6810;DHT22;3443;48.812;9.112;2023-02-28T01:42:39;-2.50;99.90
6810;DHT22;3443;48.812;9.112;2023-02-28T01:47:48;-2.60;99.90
6810;DHT22;3443;48.812;9.112;2023-02-28T01:50:20;-2.60;99.90
6810;DHT22;3443;48.812;9.112;2023-02-28T01:52:47;-2.60;99.90
6810;DHT22;3443;48.812;9.112;2023-02-28T01:55:15;-2.60;99.90
6810;DHT22;3443;48.812;9.112;2023-02-28T01:57:46;-2.60;99.90
6810;DHT22;3443;48.812;9.112;2023-02-28T02:00:16;-2.60;99.90
6810;DHT22;3443;48.812;9.112;2023-02-28T02:02:45;-2.60;99.90
6810;DHT22;3443;48.812;9.112;2023-02-28T02:05:20;-2.60;99.90
6810;DHT22;3443;48.812;9.112;2023-02-28T02:07:48;-2.60;99.90
6810;DHT22;3443;48.812;9.112;2023-02-28T02:10:20;-2.60;99.90
6810;DHT22;3443;48.812;9.112;2023-02-28T02:17:57;-2.60;99.90
6810;DHT22;3443;48.812;9.112;2023-02-28T02:31:39;-2.60;99.90
6810;DHT22;3443;48.812;9.112;2023-02-28T02:37:03;-2.60;99.90
6810;DHT22;3443;48.812;9.112;2023-02-28T02:39:50;-2.60;99.90
6810;DHT22;3443;48.812;9.112;2023-02-28T02:42:25;-2.60;99.90
6810;DHT22;3443;48.812;9.112;2023-02-28T02:44:59;-2.50;99.90
6810;DHT22;3443;48.812;9.112;2023-02-28T02:47:28;-2.50;99.90
6810;DHT22;3443;48.812;9.112;2023-02-28T02:49:58;-2.50;99.90
6810;DHT22;3443;48.812;9.112;2023-02-28T02:52:30;-2.50;99.90
6810;DHT22;3443;48.812;9.112;2023-02-28T02:54:58;-2.70;99.90
6810;DHT22;3443;48.812;9.112;2023-02-28T02:57:30;-2.40;99.90
6810;DHT22;3443;48.812;9.112;2023-02-28T02:59:59;-2.40;99.90
6810;DHT22;3443;48.812;9.112;2023-02-28T03:02:28;-2.40;99.90
6810;DHT22;3443;48.812;9.112;2023-02-28T03:05:02;-2.40;99.90
6810;DHT22;3443;48.812;9.112;2023-02-28T03:07:29;-2.40;99.90
6810;DHT22;3443;48.812;9.112;2023-02-28T03:09:56;-2.40;99.90
6810;DHT22;3443;48.812;9.112;2023-02-28T03:12:49;-2.40;99.90
6810;DHT22;3443;48.812;9.112;2023-02-28T03:15:26;-2.40;99.90
6810;DHT22;3443;48.812;9.112;2023-02-28T03:18:04;-2.40;99.90
6810;DHT22;3443;48.812;9.112;2023-02-28T03:20:49;-2.30;99.90
6810;DHT22;3443;48.812;9.112;2023-02-28T03:23:21;-2.30;99.90
6810;DHT22;3443;48.812;9.112;2023-02-28T03:26:27;-2.30;99.90
6810;DHT22;3443;48.812;9.112;2023-02-28T03:29:03;-2.30;99.90
6810;DHT22;3443;48.812;9.112;2023-02-28T03:31:36;-2.30;99.90
6810;DHT22;3443;48.812;9.112;2023-02-28T03:34:14;-2.30;99.90
6810;DHT22;3443;48.812;9.112;2023-02-28T03:36:51;-2.30;99.90
6810;DHT22;3443;48.812;9.112;2023-02-28T03:39:22;-2.30;99.90
6810;DHT22;3443;48.812;9.112;2023-02-28T03:41:58;-2.30;99.90
6810;DHT22;3443;48.812;9.112;2023-02-28T03:44:32;-2.30;99.90
6810;DHT22;3443;48.812;9.112;2023-02-28T03:47:10;-2.30;99.90
6810;DHT22;3443;48.812;9.112;2023-02-28T03:49:47;-2.30;99.90
6810;DHT22;3443;48.812;9.112;2023-02-28T03:52:14;-2.30;99.90
6810;DHT22;3443;48.812;9.112;2023-02-28T03:54:45;-2.30;99.90
6810;DHT22;3443;48.812;9.112;2023-02-28T03:57:26;-2.30;99.90
6810;DHT22;3443;48.812;9.112;2023-02-28T03:59:58;-2.30;99.90
6810;DHT22;3443;48.812;9.112;2023-02-28T04:02:24;-2.30;99.90
6810;DHT22;3443;48.812;9.112;2023-02-28T04:04:54;-2.20;99.90
6810;DHT22;3443;48.812;9.112;2023-02-28T04:07:20;-2.20;99.90
6810;DHT22;3443;48.812;9.112;2023-02-28T04:09:46;-2.20;99.90
6810;DHT22;3443;48.812;9.112;2023-02-28T04:12:11;-2.20;99.90
6810;DHT22;3443;48.812;9.112;2023-02-28T04:14:37;-2.20;99.90
6810;DHT22;3443;48.812;9.112;2023-02-28T04:17:03;-2.20;99.90
6810;DHT22;3443;48.812;9.112;2023-02-28T04:19:28;-2.20;99.90
6810;DHT22;3443;48.812;9.112;2023-02-28T04:21:54;-2.20;99.90
6810;DHT22;3443;48.812;9.112;2023-02-28T04:24:22;-2.20;99.90
6810;DHT22;3443;48.812;9.112;2023-02-28T04:26:51;-2.20;99.90
6810;DHT22;3443;48.812;9.112;2023-02-28T04:29:25;-2.20;99.90
6810;DHT22;3443;48.812;9.112;2023-02-28T04:31:51;-2.10;99.90
6810;DHT22;3443;48.812;9.112;2023-02-28T04:34:18;-2.20;99.90
6810;DHT22;3443;48.812;9.112;2023-02-28T04:36:45;-2.10;99.90
6810;DHT22;3443;48.812;9.112;2023-02-28T04:39:11;-2.10;99.90
6810;DHT22;3443;48.812;9.112;2023-02-28T04:41:37;-2.10;99.90
6810;DHT22;3443;48.812;9.112;2023-02-28T04:44:03;-2.10;99.90
6810;DHT22;3443;48.812;9.112;2023-02-28T04:46:28;-2.10;99.90
6810;DHT22;3443;48.812;9.112;2023-02-28T04:48:55;-2.10;99.90
6810;DHT22;3443;48.812;9.112;2023-02-28T04:51:21;-2.10;99.90
6810;DHT22;3443;48.812;9.112;2023-02-28T04:53:47;-2.00;99.90
6810;DHT22;3443;48.812;9.112;2023-02-28T04:56:15;-2.00;99.90
6810;DHT22;3443;48.812;9.112;2023-02-28T04:58:41;-2.00;99.90
6810;DHT22;3443;48.812;9.112;2023-02-28T05:01:29;-1.90;99.90
6810;DHT22;3443;48.812;9.112;2023-02-28T05:03:56;-2.00;99.90
6810;DHT22;3443;48.812;9.112;2023-02-28T05:06:23;-2.00;99.90
6810;DHT22;3443;48.812;9.112;2023-02-28T05:08:50;-2.00;99.90
6810;DHT22;3443;48.812;9.112;2023-02-28T05:11:17;-2.00;99.90
6810;DHT22;3443;48.812;9.112;2023-02-28T05:13:43;-2.00;99.90
6810;DHT22;3443;48.812;9.112;2023-02-28T05:16:08;-1.90;99.90
6810;DHT22;3443;48.812;9.112;2023-02-28T05:18:34;-2.00;99.90
6810;DHT22;3443;48.812;9.112;2023-02-28T05:21:00;-2.00;99.90
6810;DHT22;3443;48.812;9.112;2023-02-28T05:23:27;-2.00;99.90
6810;DHT22;3443;48.812;9.112;2023-02-28T05:25:53;-2.00;99.90
6810;DHT22;3443;48.812;9.112;2023-02-28T05:28:19;-2.00;99.90
6810;DHT22;3443;48.812;9.112;2023-02-28T05:30:45;-2.00;99.90
6810;DHT22;3443;48.812;9.112;2023-02-28T05:33:12;-2.00;99.90
6810;DHT22;3443;48.812;9.112;2023-02-28T05:35:41;-1.90;99.90
6810;DHT22;3443;48.812;9.112;2023-02-28T05:38:08;-1.90;99.90
6810;DHT22;3443;48.812;9.112;2023-02-28T05:40:34;-1.90;99.90
6810;DHT22;3443;48.812;9.112;2023-02-28T05:43:00;-1.90;99.90
6810;DHT22;3443;48.812;9.112;2023-02-28T05:45:26;-1.90;99.90
6810;DHT22;3443;48.812;9.112;2023-02-28T05:47:55;-1.90;99.90
6810;DHT22;3443;48.812;9.112;2023-02-28T05:50:21;-1.90;99.90
6810;DHT22;3443;48.812;9.112;2023-02-28T05:52:50;-1.90;99.90
6810;DHT22;3443;48.812;9.112;2023-02-28T05:55:16;-1.90;99.90
6810;DHT22;3443;48.812;9.112;2023-02-28T05:57:42;-1.90;99.90
6810;DHT22;3443;48.812;9.112;2023-02-28T06:00:08;-1.90;99.90
6810;DHT22;3443;48.812;9.112;2023-02-28T06:02:34;-1.90;99.90
6810;DHT22;3443;48.812;9.112;2023-02-28T06:04:59;-1.90;99.90
6810;DHT22;3443;48.812;9.112;2023-02-28T06:07:25;-1.70;99.90
6810;DHT22;3443;48.812;9.112;2023-02-28T06:09:50;-1.90;99.90
6810;DHT22;3443;48.812;9.112;2023-02-28T06:12:16;-1.90;99.90
6810;DHT22;3443;48.812;9.112;2023-02-28T06:14:42;-1.80;99.90
6810;DHT22;3443;48.812;9.112;2023-02-28T06:17:08;-1.80;99.90
6810;DHT22;3443;48.812;9.112;2023-02-28T06:19:35;-1.80;99.90
6810;DHT22;3443;48.812;9.112;2023-02-28T06:22:04;-1.80;99.90
6810;DHT22;3443;48.812;9.112;2023-02-28T06:24:29;-1.80;99.90
6810;DHT22;3443;48.812;9.112;2023-02-28T06:26:56;-1.80;99.90
6810;DHT22;3443;48.812;9.112;2023-02-28T06:29:24;-1.80;99.90
6810;DHT22;3443;48.812;9.112;2023-02-28T06:31:49;-1.80;99.90
6810;DHT22;3443;48.812;9.112;2023-02-28T06:34:16;-1.80;99.90
6810;DHT22;3443;48.812;9.112;2023-02-28T06:36:42;-1.80;99.90
6810;DHT22;3443;48.812;9.112;2023-02-28T06:39:08;-1.80;99.90
6810;DHT22;3443;48.812;9.112;2023-02-28T06:41:36;-1.80;99.90
6810;DHT22;3443;48.812;9.112;2023-02-28T06:44:13;-1.80;99.90
6810;DHT22;3443;48.812;9.112;2023-02-28T06:46:43;-1.80;99.90
6810;DHT22;3443;48.812;9.112;2023-02-28T06:49:09;-1.80;99.90
6810;DHT22;3443;48.812;9.112;2023-02-28T06:51:35;-1.70;99.90
6810;DHT22;3443;48.812;9.112;2023-02-28T06:54:01;-1.70;99.90
6810;DHT22;3443;48.812;9.112;2023-02-28T06:56:27;-1.70;99.90
6810;DHT22;3443;48.812;9.112;2023-02-28T06:58:52;-1.70;99.90
6810;DHT22;3443;48.812;9.112;2023-02-28T07:01:18;-1.60;99.90
6810;DHT22;3443;48.812;9.112;2023-02-28T07:03:45;-1.60;99.90
6810;DHT22;3443;48.812;9.112;2023-02-28T07:06:10;-1.60;99.90
6810;DHT22;3443;48.812;9.112;2023-02-28T07:08:36;-1.60;99.90
6810;DHT22;3443;48.812;9.112;2023-02-28T07:11:03;-1.60;99.90
6810;DHT22;3443;48.812;9.112;2023-02-28T07:13:28;-1.60;99.90
6810;DHT22;3443;48.812;9.112;2023-02-28T07:15:59;-1.60;99.90
6810;DHT22;3443;48.812;9.112;2023-02-28T07:18:26;-1.60;99.90
6810;DHT22;3443;48.812;9.112;2023-02-28T07:20:52;-1.60;99.90
6810;DHT22;3443;48.812;9.112;2023-02-28T07:23:18;-1.60;99.90
6810;DHT22;3443;48.812;9.112;2023-02-28T07:25:44;-1.50;99.90
6810;DHT22;3443;48.812;9.112;2023-02-28T07:28:11;-1.50;99.90
6810;DHT22;3443;48.812;9.112;2023-02-28T07:30:36;-1.50;99.90
6810;DHT22;3443;48.812;9.112;2023-02-28T07:33:02;-1.50;99.90
6810;DHT22;3443;48.812;9.112;2023-02-28T07:35:27;-1.50;99.90
6810;DHT22;3443;48.812;9.112;2023-02-28T07:37:53;-1.50;99.90
6810;DHT22;3443;48.812;9.112;2023-02-28T07:40:19;-1.50;99.90
6810;DHT22;3443;48.812;9.112;2023-02-28T07:42:44;-1.50;99.90
6810;DHT22;3443;48.812;9.112;2023-02-28T07:45:11;-1.50;99.90
6810;DHT22;3443;48.812;9.112;2023-02-28T07:47:41;-1.50;99.90
6810;DHT22;3443;48.812;9.112;2023-02-28T07:50:09;-1.40;99.90
6810;DHT22;3443;48.812;9.112;2023-02-28T07:52:39;-1.40;99.90
6810;DHT22;3443;48.812;9.112;2023-02-28T07:55:06;-1.40;99.90
6810;DHT22;3443;48.812;9.112;2023-02-28T07:57:32;-1.30;99.90
6810;DHT22;3443;48.812;9.112;2023-02-28T07:59:58;-1.40;99.90
6810;DHT22;3443;48.812;9.112;2023-02-28T08:02:24;-1.40;99.90
6810;DHT22;3443;48.812;9.112;2023-02-28T08:04:50;-1.40;99.90
6810;DHT22;3443;48.812;9.112;2023-02-28T08:07:16;-1.40;99.90
6810;DHT22;3443;48.812;9.112;2023-02-28T08:09:43;-1.30;99.90
6810;DHT22;3443;48.812;9.112;2023-02-28T08:12:10;-1.30;99.90
6810;DHT22;3443;48.812;9.112;2023-02-28T08:14:36;-1.20;99.90
6810;DHT22;3443;48.812;9.112;2023-02-28T08:17:02;-1.20;99.90
6810;DHT22;3443;48.812;9.112;2023-02-28T08:19:28;-1.20;99.90
6810;DHT22;3443;48.812;9.112;2023-02-28T08:21:54;-1.20;99.90
6810;DHT22;3443;48.812;9.112;2023-02-28T08:24:19;-1.30;99.90
6810;DHT22;3443;48.812;9.112;2023-02-28T08:26:45;-1.30;99.90
6810;DHT22;3443;48.812;9.112;2023-02-28T08:29:10;-1.30;99.90
6810;DHT22;3443;48.812;9.112;2023-02-28T08:31:36;-1.20;99.90
6810;DHT22;3443;48.812;9.112;2023-02-28T08:34:09;-1.10;99.90
6810;DHT22;3443;48.812;9.112;2023-02-28T08:36:36;-1.10;99.90
6810;DHT22;3443;48.812;9.112;2023-02-28T08:39:03;-0.90;99.90
6810;DHT22;3443;48.812;9.112;2023-02-28T08:41:29;-1.00;99.90
6810;DHT22;3443;48.812;9.112;2023-02-28T08:43:55;-1.00;99.90
6810;DHT22;3443;48.812;9.112;2023-02-28T08:46:20;-1.00;99.90
6810;DHT22;3443;48.812;9.112;2023-02-28T08:48:46;-1.00;99.90
6810;DHT22;3443;48.812;9.112;2023-02-28T08:51:16;-1.00;99.90
6810;DHT22;3443;48.812;9.112;2023-02-28T08:53:44;-1.00;99.90
6810;DHT22;3443;48.812;9.112;2023-02-28T08:56:12;-0.90;99.90
6810;DHT22;3443;48.812;9.112;2023-02-28T08:58:38;-1.00;99.90
6810;DHT22;3443;48.812;9.112;2023-02-28T09:01:10;-1.00;99.90
6810;DHT22;3443;48.812;9.112;2023-02-28T09:03:36;-0.90;99.90
6810;DHT22;3443;48.812;9.112;2023-02-28T09:06:02;-0.80;99.90
6810;DHT22;3443;48.812;9.112;2023-02-28T09:08:29;-0.80;99.90
6810;DHT22;3443;48.812;9.112;2023-02-28T09:10:56;-0.90;99.90
6810;DHT22;3443;48.812;9.112;2023-02-28T09:13:24;-0.80;99.90
6810;DHT22;3443;48.812;9.112;2023-02-28T09:15:50;-0.80;99.90
6810;DHT22;3443;48.812;9.112;2023-02-28T09:18:16;-0.80;99.90
6810;DHT22;3443;48.812;9.112;2023-02-28T09:20:42;-0.70;99.90
6810;DHT22;3443;48.812;9.112;2023-02-28T09:23:10;-0.70;99.90
6810;DHT22;3443;48.812;9.112;2023-02-28T09:25:37;-0.50;99.90
6810;DHT22;3443;48.812;9.112;2023-02-28T09:28:03;-0.50;99.90
6810;DHT22;3443;48.812;9.112;2023-02-28T09:30:29;-0.40;99.90
6810;DHT22;3443;48.812;9.112;2023-02-28T09:32:55;-0.30;99.90
6810;DHT22;3443;48.812;9.112;2023-02-28T09:35:21;-0.20;99.90
6810;DHT22;3443;48.812;9.112;2023-02-28T09:37:50;-0.10;99.90
6810;DHT22;3443;48.812;9.112;2023-02-28T09:40:21;-0.20;99.90
6810;DHT22;3443;48.812;9.112;2023-02-28T09:42:49;-0.20;99.90
6810;DHT22;3443;48.812;9.112;2023-02-28T09:45:37;-0.10;99.90
6810;DHT22;3443;48.812;9.112;2023-02-28T09:48:26;0.00;99.90
6810;DHT22;3443;48.812;9.112;2023-02-28T09:51:00;0.10;99.90
6810;DHT22;3443;48.812;9.112;2023-02-28T09:53:30;0.20;99.90
6810;DHT22;3443;48.812;9.112;2023-02-28T09:58:37;0.30;99.90
6810;DHT22;3443;48.812;9.112;2023-02-28T10:04:10;0.30;99.90
6810;DHT22;3443;48.812;9.112;2023-02-28T10:06:49;0.40;99.90
6810;DHT22;3443;48.812;9.112;2023-02-28T10:09:22;0.50;99.90
6810;DHT22;3443;48.812;9.112;2023-02-28T10:11:52;0.60;99.90
6810;DHT22;3443;48.812;9.112;2023-02-28T10:14:30;0.60;99.90
6810;DHT22;3443;48.812;9.112;2023-02-28T10:17:08;0.70;99.90
6810;DHT22;3443;48.812;9.112;2023-02-28T10:24:44;0.70;99.90
6810;DHT22;3443;48.812;9.112;2023-02-28T10:29:46;0.90;99.90
6810;DHT22;3443;48.812;9.112;2023-02-28T10:32:17;1.10;99.90
6810;DHT22;3443;48.812;9.112;2023-02-28T10:34:44;1.20;99.90
6810;DHT22;3443;48.812;9.112;2023-02-28T10:37:15;1.30;99.90
6810;DHT22;3443;48.812;9.112;2023-02-28T10:39:43;1.30;99.90
6810;DHT22;3443;48.812;9.112;2023-02-28T10:42:29;1.20;99.90
6810;DHT22;3443;48.812;9.112;2023-02-28T10:45:11;1.20;99.90
6810;DHT22;3443;48.812;9.112;2023-02-28T10:50:43;1.40;99.90
6810;DHT22;3443;48.812;9.112;2023-02-28T10:56:03;1.80;99.90
6810;DHT22;3443;48.812;9.112;2023-02-28T11:03:58;2.10;99.90
6810;DHT22;3443;48.812;9.112;2023-02-28T11:06:28;2.10;99.90
6810;DHT22;3443;48.812;9.112;2023-02-28T11:08:56;2.20;99.90
6810;DHT22;3443;48.812;9.112;2023-02-28T11:11:25;2.20;99.90
6810;DHT22;3443;48.812;9.112;2023-02-28T11:13:55;2.00;99.90
6810;DHT22;3443;48.812;9.112;2023-02-28T11:16:22;1.90;99.90
6810;DHT22;3443;48.812;9.112;2023-02-28T11:18:57;1.80;99.90
6810;DHT22;3443;48.812;9.112;2023-02-28T11:21:35;1.80;99.90
6810;DHT22;3443;48.812;9.112;2023-02-28T11:26:49;1.90;99.90
6810;DHT22;3443;48.812;9.112;2023-02-28T11:29:32;2.00;99.90
6810;DHT22;3443;48.812;9.112;2023-02-28T11:34:32;2.00;99.90
6810;DHT22;3443;48.812;9.112;2023-02-28T11:36:59;2.40;99.90
6810;DHT22;3443;48.812;9.112;2023-02-28T11:39:25;2.40;99.90
6810;DHT22;3443;48.812;9.112;2023-02-28T11:50:08;2.70;99.90
6810;DHT22;3443;48.812;9.112;2023-02-28T11:55:20;3.30;99.90
6810;DHT22;3443;48.812;9.112;2023-02-28T12:00:40;3.30;99.90
6810;DHT22;3443;48.812;9.112;2023-02-28T12:03:32;3.60;99.90
6810;DHT22;3443;48.812;9.112;2023-02-28T12:06:22;3.50;99.90
6810;DHT22;3443;48.812;9.112;2023-02-28T12:09:20;3.80;99.90
6810;DHT22;3443;48.812;9.112;2023-02-28T12:12:17;4.00;99.90
6810;DHT22;3443;48.812;9.112;2023-02-28T12:22:32;4.40;99.90
6810;DHT22;3443;48.812;9.112;2023-02-28T12:27:36;4.80;99.90
6810;DHT22;3443;48.812;9.112;2023-02-28T12:30:23;4.90;99.90
6810;DHT22;3443;48.812;9.112;2023-02-28T12:33:11;4.80;99.90
6810;DHT22;3443;48.812;9.112;2023-02-28T12:35:57;4.80;99.90
6810;DHT22;3443;48.812;9.112;2023-02-28T12:38:27;4.70;99.90
6810;DHT22;3443;48.812;9.112;2023-02-28T12:40:59;4.70;99.90
6810;DHT22;3443;48.812;9.112;2023-02-28T12:43:30;4.30;99.90
6810;DHT22;3443;48.812;9.112;2023-02-28T12:46:09;4.10;99.90
6810;DHT22;3443;48.812;9.112;2023-02-28T12:48:56;4.20;99.90
6810;DHT22;3443;48.812;9.112;2023-02-28T12:51:23;4.30;99.90
6810;DHT22;3443;48.812;9.112;2023-02-28T12:53:58;4.40;99.90
6810;DHT22;3443;48.812;9.112;2023-02-28T13:04:36;4.50;99.90
6810;DHT22;3443;48.812;9.112;2023-02-28T13:07:30;4.10;99.90
6810;DHT22;3443;48.812;9.112;2023-02-28T13:10:00;4.10;99.90
6810;DHT22;3443;48.812;9.112;2023-02-28T13:12:29;4.20;99.90
6810;DHT22;3443;48.812;9.112;2023-02-28T13:15:22;4.30;99.90
6810;DHT22;3443;48.812;9.112;2023-02-28T13:17:51;4.20;99.90
6810;DHT22;3443;48.812;9.112;2023-02-28T13:20:35;4.20;99.90
6810;DHT22;3443;48.812;9.112;2023-02-28T13:23:01;4.20;99.90
6810;DHT22;3443;48.812;9.112;2023-02-28T13:25:51;4.30;99.90
6810;DHT22;3443;48.812;9.112;2023-02-28T13:31:16;4.50;99.90
6810;DHT22;3443;48.812;9.112;2023-02-28T13:34:05;4.60;99.90
6810;DHT22;3443;48.812;9.112;2023-02-28T13:36:36;4.70;99.90
6810;DHT22;3443;48.812;9.112;2023-02-28T13:39:11;4.90;99.90
6810;DHT22;3443;48.812;9.112;2023-02-28T13:41:49;4.90;99.90
6810;DHT22;3443;48.812;9.112;2023-02-28T13:49:31;4.90;99.90
6810;DHT22;3443;48.812;9.112;2023-02-28T14:06:28;4.90;99.90
6810;DHT22;3443;48.812;9.112;2023-02-28T14:11:45;4.80;99.90
6810;DHT22;3443;48.812;9.112;2023-02-28T14:16:59;4.90;99.90
6810;DHT22;3443;48.812;9.112;2023-02-28T14:19:28;4.70;99.90
6810;DHT22;3443;48.812;9.112;2023-02-28T14:22:19;4.80;99.90
6810;DHT22;3443;48.812;9.112;2023-02-28T14:25:16;4.90;99.90
6810;DHT22;3443;48.812;9.112;2023-02-28T14:36:33;5.00;99.90
6810;DHT22;3443;48.812;9.112;2023-02-28T14:39:12;5.20;99.90
6810;DHT22;3443;48.812;9.112;2023-02-28T14:41:41;5.10;99.90
6810;DHT22;3443;48.812;9.112;2023-02-28T14:44:14;5.20;99.90
6810;DHT22;3443;48.812;9.112;2023-02-28T14:46:41;5.30;99.90
6810;DHT22;3443;48.812;9.112;2023-02-28T14:49:21;5.30;99.90
6810;DHT22;3443;48.812;9.112;2023-02-28T14:51:50;5.40;99.90
6810;DHT22;3443;48.812;9.112;2023-02-28T14:54:26;5.30;99.90
6810;DHT22;3443;48.812;9.112;2023-02-28T14:56:52;5.10;99.90
6810;DHT22;3443;48.812;9.112;2023-02-28T14:59:28;5.00;99.90
6810;DHT22;3443;48.812;9.112;2023-02-28T15:02:20;5.00;99.90
6810;DHT22;3443;48.812;9.112;2023-02-28T15:05:00;5.10;99.90
6810;DHT22;3443;48.812;9.112;2023-02-28T15:07:26;5.00;99.90
6810;DHT22;3443;48.812;9.112;2023-02-28T15:10:25;4.90;99.90
6810;DHT22;3443;48.812;9.112;2023-02-28T15:12:59;4.80;99.90
6810;DHT22;3443;48.812;9.112;2023-02-28T15:18:03;4.80;99.90
6810;DHT22;3443;48.812;9.112;2023-02-28T15:20:29;4.90;99.90
6810;DHT22;3443;48.812;9.112;2023-02-28T15:22:55;4.90;99.90
6810;DHT22;3443;48.812;9.112;2023-02-28T15:25:22;4.90;99.90
6810;DHT22;3443;48.812;9.112;2023-02-28T15:27:50;4.90;99.90
6810;DHT22;3443;48.812;9.112;2023-02-28T15:30:25;4.80;99.90
6810;DHT22;3443;48.812;9.112;2023-02-28T15:35:37;4.50;99.90
6810;DHT22;3443;48.812;9.112;2023-02-28T15:38:04;4.60;99.90
6810;DHT22;3443;48.812;9.112;2023-02-28T15:40:44;4.50;99.90
6810;DHT22;3443;48.812;9.112;2023-02-28T15:43:16;4.60;99.90
6810;DHT22;3443;48.812;9.112;2023-02-28T15:45:47;4.50;99.90
6810;DHT22;3443;48.812;9.112;2023-02-28T15:48:21;4.50;99.90
6810;DHT22;3443;48.812;9.112;2023-02-28T15:51:07;4.50;99.90
6810;DHT22;3443;48.812;9.112;2023-02-28T15:53:48;4.50;99.90
6810;DHT22;3443;48.812;9.112;2023-02-28T15:56:32;4.50;99.90
6810;DHT22;3443;48.812;9.112;2023-02-28T15:59:02;4.40;99.90
6810;DHT22;3443;48.812;9.112;2023-02-28T16:01:30;4.50;99.90
6810;DHT22;3443;48.812;9.112;2023-02-28T16:04:13;4.50;99.90
6810;DHT22;3443;48.812;9.112;2023-02-28T16:09:14;4.50;99.90
6810;DHT22;3443;48.812;9.112;2023-02-28T16:11:48;4.40;99.90
6810;DHT22;3443;48.812;9.112;2023-02-28T16:14:26;4.30;99.90
6810;DHT22;3443;48.812;9.112;2023-02-28T16:17:12;4.30;99.90
6810;DHT22;3443;48.812;9.112;2023-02-28T16:19:42;4.20;99.90
6810;DHT22;3443;48.812;9.112;2023-02-28T16:22:08;4.20;99.90
6810;DHT22;3443;48.812;9.112;2023-02-28T16:24:34;4.10;99.90
6810;DHT22;3443;48.812;9.112;2023-02-28T16:27:00;4.00;99.90
6810;DHT22;3443;48.812;9.112;2023-02-28T16:29:33;4.00;99.90
6810;DHT22;3443;48.812;9.112;2023-02-28T16:32:00;4.00;99.90
6810;DHT22;3443;48.812;9.112;2023-02-28T16:34:26;3.90;99.90
6810;DHT22;3443;48.812;9.112;2023-02-28T16:36:52;3.90;99.90
6810;DHT22;3443;48.812;9.112;2023-02-28T16:39:18;3.90;99.90
6810;DHT22;3443;48.812;9.112;2023-02-28T16:41:47;3.80;99.90
6810;DHT22;3443;48.812;9.112;2023-02-28T16:44:32;3.80;99.90
6810;DHT22;3443;48.812;9.112;2023-02-28T16:47:00;3.70;99.90
6810;DHT22;3443;48.812;9.112;2023-02-28T16:49:25;3.70;99.90
6810;DHT22;3443;48.812;9.112;2023-02-28T16:51:52;3.60;99.90
6810;DHT22;3443;48.812;9.112;2023-02-28T16:54:18;3.60;99.90
6810;DHT22;3443;48.812;9.112;2023-02-28T16:56:45;3.50;99.90
6810;DHT22;3443;48.812;9.112;2023-02-28T16:59:11;3.50;99.90
6810;DHT22;3443;48.812;9.112;2023-02-28T17:01:38;3.40;99.90
6810;DHT22;3443;48.812;9.112;2023-02-28T17:04:03;3.40;99.90
6810;DHT22;3443;48.812;9.112;2023-02-28T17:06:30;3.30;99.90
6810;DHT22;3443;48.812;9.112;2023-02-28T17:08:56;3.30;99.90
6810;DHT22;3443;48.812;9.112;2023-02-28T17:11:23;3.30;99.90
6810;DHT22;3443;48.812;9.112;2023-02-28T17:13:49;3.20;99.90
6810;DHT22;3443;48.812;9.112;2023-02-28T17:16:17;3.20;99.90
6810;DHT22;3443;48.812;9.112;2023-02-28T17:18:45;3.10;99.90
6810;DHT22;3443;48.812;9.112;2023-02-28T17:21:17;3.00;99.90
6810;DHT22;3443;48.812;9.112;2023-02-28T17:23:43;2.90;99.90
6810;DHT22;3443;48.812;9.112;2023-02-28T17:26:14;2.90;99.90
6810;DHT22;3443;48.812;9.112;2023-02-28T17:28:40;2.90;99.90
6810;DHT22;3443;48.812;9.112;2023-02-28T17:31:07;2.80;99.90
6810;DHT22;3443;48.812;9.112;2023-02-28T17:33:32;2.80;99.90
6810;DHT22;3443;48.812;9.112;2023-02-28T17:35:58;2.70;99.90
6810;DHT22;3443;48.812;9.112;2023-02-28T17:38:23;2.60;99.90
6810;DHT22;3443;48.812;9.112;2023-02-28T17:40:49;2.60;99.90
6810;DHT22;3443;48.812;9.112;2023-02-28T17:43:14;2.50;99.90
6810;DHT22;3443;48.812;9.112;2023-02-28T17:45:40;2.50;99.90
6810;DHT22;3443;48.812;9.112;2023-02-28T17:48:08;2.40;99.90
6810;DHT22;3443;48.812;9.112;2023-02-28T17:50:34;2.40;99.90
6810;DHT22;3443;48.812;9.112;2023-02-28T17:53:00;2.40;99.90
6810;DHT22;3443;48.812;9.112;2023-02-28T17:55:26;2.30;99.90
6810;DHT22;3443;48.812;9.112;2023-02-28T17:57:51;2.20;99.90
6810;DHT22;3443;48.812;9.112;2023-02-28T18:00:17;2.20;99.90
6810;DHT22;3443;48.812;9.112;2023-02-28T18:02:44;2.20;99.90
6810;DHT22;3443;48.812;9.112;2023-02-28T18:05:10;2.20;99.90
6810;DHT22;3443;48.812;9.112;2023-02-28T18:07:39;2.20;99.90
6810;DHT22;3443;48.812;9.112;2023-02-28T18:10:09;2.20;99.90
6810;DHT22;3443;48.812;9.112;2023-02-28T18:12:38;2.10;99.90
6810;DHT22;3443;48.812;9.112;2023-02-28T18:15:04;2.10;99.90
6810;DHT22;3443;48.812;9.112;2023-02-28T18:17:29;2.10;99.90
6810;DHT22;3443;48.812;9.112;2023-02-28T18:19:55;2.00;99.90
6810;DHT22;3443;48.812;9.112;2023-02-28T18:22:21;2.00;99.90
6810;DHT22;3443;48.812;9.112;2023-02-28T18:24:46;1.90;99.90
6810;DHT22;3443;48.812;9.112;2023-02-28T18:27:12;1.90;99.90
6810;DHT22;3443;48.812;9.112;2023-02-28T18:29:38;1.80;99.90
6810;DHT22;3443;48.812;9.112;2023-02-28T18:32:04;1.80;99.90
6810;DHT22;3443;48.812;9.112;2023-02-28T18:34:30;1.80;99.90